logo
Search for airport 
image banner adimage banner adimage banner ad
image banner ad

FAEG - Elgin

Located in Egnep, South Africa

ICAO - FAEG, IATA -

Data provided by Airmate  

General information

Coordinates: S34°10'17" E19°3'9"
Elevation is 1102 feet MSL.
Magnetic variation is -26° East
View others Airports in Limpopo

Operational data

Special qualification required
Current time UTC:
Current local time:
Weather at : - ( 0 km )
METAR: LMML 140545Z 06011KT 040V130 CAVOK 17/16 Q1022 NOSIG
View NOTAMs / SUP AIP / TFR affecting this airport [VIEW]
Communications frequencies: [VIEW]

Runways:

RWY identifierQFULength (ft)Width (ft)SurfaceLDA (ft)
14118°2265120DIRT
32298°2265120DIRT

Airport contact information

Address: Egnep South Africa

Satellite view of FAEG